CYKJ

Key Lake Airport

Key Lake, Saskatchewan, Canada
METAR CYKJ 251400Z AUTO 33007KT 9SM OVC055 02/M00 A2994 RMK SLP165
Observed Flight Rules
Sep-25 @ 14:00 UTC (an hour ago) Visual Flight Rules
Wind Visibility Clouds
330° at 7 knots 9 miles
  • Overcast at 5,500' AGL
Temperatures Readings
Current 2°C / 36°F
Dewpoint 0°C / 32°F
Humidity 87%
Altimeter 29.94" Hg
Pressure 1016.5 hPa
Elevation 509
METAR CYKJ 251400Z AUTO 33007KT 9SM OVC055 02/M00 A2994 RMK SLP165
Observed Flight Rules
Sep-25 @ 14:00 UTC
(an hour ago)
VFR
Wind Visibility
330° at 7 knots 9 miles
Clouds
  • Overcast at 5,500' AGL
Temperature Dewpoint
2°C / 36°F 0°C / 32°F
Humidity Altimeter Pressure
87% 29.94" Hg 1016.5 hPa